AirNav   TITAN Aviation Fuels
 
 1066 users online  

9II4 Cruzan Field Airport
Arcadia, Indiana, USA

GOING TO ARCADIA?


FAA INFORMATION EFFECTIVE 22 APRIL 2021

Location

FAA Identifier: 9II4
Lat/Long: 40-10-21.0000N 085-56-41.0000W
40-10.350000N 085-56.683333W
40.1725000,-85.9447222
(estimated)
Elevation: 845 ft. / 258 m (estimated)
Variation: 03W (1990)
From city: 4 miles E of ARCADIA, IN
Time zone: UTC -4 (UTC -5 during Standard Time)
Zip code: 46034

Airport Operations

Airport use: Private use. Permission required prior to landing
Activation date: 11/1992
Control tower: no
ARTCC: CHICAGO CENTER
FSS: TERRE HAUTE FLIGHT SERVICE STATION
Attendance: UNATNDD
Wind indicator: yes
Segmented circle: no

Airport Communications

WX AWOS-3 at UMP (15 nm S): 119.375 (317-842-3911)
WX AWOS-3 at AID (16 nm E): 128.55 (765-442-1245)
WX AWOS-3PT at TYQ (16 nm SW): 120.725 (317-769-3154)
WX AWOS-3 at MQJ (20 nm S): 124.175 (317-335-3037)

Nearby radio navigation aids

VOR radial/distance  VOR name  Freq  Var
OKKr171/21.9KOKOMO VORTAC113.5005W
MZZr215/22.8MARION VOR/DME108.6003W
MIEr264/25.5MUNCIE VOR/DME114.4003W
VHPr041/29.0BRICKYARD VORTAC116.3001E
GUSr164/29.9GRISSOM VORTAC108.4502W
SHBr349/32.9SHELBYVILLE VOR/DME112.0001E

 
NDB name  Hdg/Dist  Freq  Var  ID
METROPOLITAN022/14.933803WUMP ..- -- .--.
NEW CASTLE307/33.738506WUWL ..- .-- .-..

Airport Services

Runway Information

Runway 9/27

Dimensions: 3300 x 70 ft. / 1006 x 21 m
Surface: turf
RUNWAY 9  RUNWAY 27
Latitude: 40-10.350000N
Longitude: 085-56.683333W
Elevation: 845.0 ft.
Traffic pattern: leftleft
Displaced threshold: no560 ft.
Obstructions: none35 ft. bldg, 140 ft. from runway

Airport Ownership and Management from official FAA records

Ownership: Privately-owned
Owner: ROBERT E. CRUZAN II
26410 S.R. 213
ARCADIA, IN 46030
Phone 317-439-0800
Manager: ROBERT E. CRUZAN II
26410 S.R. 213
ARCADIA, IN 46030
Phone 317-439-0800

Airport Operational Statistics

Aircraft based on the field: 4
Single engine airplanes: 1
Ultralights: 3
    

Additional Remarks

FOR CD CTC CHICAGO ARTCC AT 630-906-8921.

Instrument Procedures

There are no published instrument procedures at 9II4.

Some nearby airports with instrument procedures:

5I4 - Sheridan Airport (12 nm W)
KUMP - Indianapolis Metro Airport (15 nm S)
KAID - Anderson Municipal Airport-Darlington Field (16 nm E)
KTYQ - Indianapolis Executive Airport (16 nm SW)
KMQJ - Indianapolis Regional Airport (20 nm S)
 
Loc | Ops | Rwys | IFR | FBO | Links
Com | Nav | Svcs | Stats | Notes
Area around 9II4 (Cruzan Field Airport)
 
Road maps at: MapQuest Bing Google
 
Aerial photo
No photo
 
Sectional chart

 
Airport distance calculator
Flying to Cruzan Field Airport? Find the distance to fly.

From to 9II4

Sunrise and sunset
Times for 07-May-2021
 Local
(UTC-4)
 Zulu
(UTC)
Morning civil twilight06:0710:07
Sunrise06:3710:37
Sunset20:4300:43
Evening civil twilight21:1301:13

Current date and time
Zulu (UTC)  07-May-2021 23:25:00
Local (UTC-4)  07-May-2021 19:25:00
 
METAR
KAID 
15nm E 
072255Z AUTO 24007KT 10SM VCTS SCT110 13/06 A2992 RMK AO2 LTG DSNT NE T01290057
KTYQ 
16nm SW 
072255Z AUTO 30006KT 10SM SCT070 SCT080 SCT090 14/07 A2993 RMK AO2 LTG DSNT NE T01370070
KMQJ 
20nm S 
072255Z AUTO 21005KT 10SM SCT100 13/10 A2992 RMK AO1
KOKK 
22nm N 
072256Z AUTO 35015KT 10SM FEW046 BKN055 OVC070 13/06 A2995 RMK AO2 WSHFT 2218 TSE25RAE05 SLP147 P0000 T01280056
KMZZ 
23nm NE 
072255Z AUTO 01004KT 7SM BKN038 OVC050 11/07 A2995 RMK AO2 T01110067
KMIE 
25nm E 
072253Z 33013KT 10SM -RA SCT039 BKN050 OVC060 11/07 A2994 RMK AO2 PK WND 34028/2228 WSHFT 2224 RAB53 SLP138 LTG DSNST N AND NW P0000 T01110072
KEYE 
26nm SW 
072253Z AUTO 17006KT 10SM VCTS FEW080 FEW100 14/08 A2991 RMK AO2 SLP128 T01440078 $
KFKR 
29nm W 
072255Z AUTO 36019KT 10SM FEW047 FEW055 SCT065 14/04 A2995 RMK AO2
KGUS 
29nm N 
072256Z 01014G21KT 10SM FEW050 SCT070 13/03 A2994 RMK AO2A PK WND 35026/19 SLP145 T01270031 $
TAF
KGUS 
29nm N 
072225Z 0722/0903 35012G20KT 9999 BKN045 OVC060 QNH2990INS TEMPO 0722/0724 27015G25KT BECMG 0808/0809 VRB06KT 9999 FEW030 QNH3009INS BECMG 0814/0815 33012G18KT 9999 SKC QNH3015INS BECMG 0817/0818 VRB06KT 9999 SKC QNH3005INS TX14/0722Z TN00/0808Z LAST NO AMDS AFT 0803 NEXT 0813
KIND 
31nm SW 
072139Z 0722/0824 21008G18KT P6SM VCSH SCT060 FM080100 34007KT P6SM FEW200
NOTAMs
Click for the latest NOTAMs
NOTAMs are issued by the DoD/FAA and will open in a separate window not controlled by AirNav.

 

 
 

Would you like to see your business listed on this page?

 If your business provides an interesting product or service to pilots, flight crews, aircraft, or users of the Cruzan Field Airport, you should consider listing it here.  To start the listing process, click on the button below
 
Add a business
 

Other Pages about Cruzan Field Airport

Update a link
 
Copyright © AirNav, LLC. All rights reserved. Privacy Policy  Contact